createdAt,value
2023-04-23T00:02:08.261Z,38.03
2023-04-23T00:04:39.065Z,41.20
2023-04-23T00:07:09.232Z,54.63
2023-04-23T00:09:38.677Z,51.58
2023-04-23T00:12:08.088Z,41.35
2023-04-23T00:14:36.774Z,39.78
2023-04-23T00:17:05.853Z,34.78
2023-04-23T00:19:34.212Z,31.70
2023-04-23T00:22:03.277Z,29.38
2023-04-23T00:24:32.123Z,33.83
2023-04-23T00:27:01.596Z,30.23
2023-04-23T00:29:29.849Z,32.95
2023-04-23T00:31:58.861Z,33.97
2023-04-23T00:34:27.195Z,31.10
2023-04-23T00:36:56.006Z,35.97
2023-04-23T00:39:24.250Z,38.20
2023-04-23T00:41:52.829Z,44.05
2023-04-23T00:44:22.720Z,46.97
2023-04-23T00:46:53.144Z,49.38
2023-04-23T00:49:22.670Z,45.78
2023-04-23T00:51:51.350Z,40.15
2023-04-23T00:54:19.554Z,44.63
2023-04-23T00:56:49.225Z,45.53
2023-04-23T00:59:18.542Z,50.65
2023-04-23T01:01:48.522Z,59.05
2023-04-23T01:04:19.427Z,59.72
2023-04-23T01:06:48.680Z,64.50
2023-04-23T01:09:19.792Z,66.93
2023-04-23T01:11:51.143Z,50.80
2023-04-23T01:14:19.434Z,51.63
2023-04-23T01:16:48.259Z,44.80
2023-04-23T01:19:16.665Z,42.45
2023-04-23T01:21:45.895Z,44.75
2023-04-23T01:24:15.338Z,43.80
2023-04-23T01:26:45.438Z,43.70
2023-04-23T01:29:14.668Z,45.67
2023-04-23T01:31:44.618Z,44.67
2023-04-23T01:34:13.938Z,39.40
2023-04-23T01:36:43.688Z,34.05
2023-04-23T01:39:12.115Z,33.40
2023-04-23T01:41:41.723Z,32.42
2023-04-23T01:44:11.098Z,31.83
2023-04-23T01:46:40.050Z,33.63
2023-04-23T01:49:09.001Z,31.58
2023-04-23T01:51:37.649Z,30.95
2023-04-23T01:54:06.043Z,30.98
2023-04-23T01:56:36.191Z,31.60
2023-04-23T01:59:04.554Z,30.63
2023-04-23T02:01:46.880Z,30.92
2023-04-23T02:04:17.066Z,29.63
2023-04-23T02:06:50.212Z,30.90
2023-04-23T02:09:18.995Z,29.65
2023-04-23T02:11:48.548Z,31.58
2023-04-23T02:14:17.754Z,32.63
2023-04-23T02:16:47.600Z,32.22
2023-04-23T02:19:17.033Z,31.83
2023-04-23T02:21:45.900Z,31.58
2023-04-23T02:24:14.130Z,30.27
2023-04-23T02:26:42.896Z,31.30
2023-04-23T02:29:11.317Z,30.20
2023-04-23T02:31:39.932Z,29.73
2023-04-23T02:34:08.390Z,31.65
2023-04-23T02:36:37.024Z,32.33
2023-04-23T02:39:06.486Z,32.72
2023-04-23T02:41:35.273Z,31.52
2023-04-23T02:46:49.240Z,32.22
2023-04-23T02:49:17.964Z,31.90
2023-04-23T02:51:47.258Z,30.73
2023-04-23T02:54:17.024Z,29.05
2023-04-23T02:56:45.916Z,28.67
2023-04-23T02:59:14.221Z,31.23
2023-04-23T03:01:43.238Z,29.90
2023-04-23T03:04:13.112Z,28.92
2023-04-23T03:06:42.247Z,28.50
2023-04-23T03:09:10.943Z,28.08
2023-04-23T03:11:39.831Z,28.77
2023-04-23T03:14:09.403Z,30.35
2023-04-23T03:16:38.291Z,28.83
2023-04-23T03:19:07.676Z,28.23
2023-04-23T03:21:36.497Z,28.75
2023-04-23T03:24:05.028Z,27.85
2023-04-23T03:26:34.896Z,27.95
2023-04-23T03:29:03.820Z,26.95
2023-04-23T03:31:32.420Z,26.50
2023-04-23T03:34:01.572Z,26.42
2023-04-23T03:36:34.969Z,27.38
2023-04-23T03:39:04.126Z,27.05
2023-04-23T03:41:46.022Z,26.57
2023-04-23T03:44:20.379Z,28.55
2023-04-23T03:46:49.331Z,26.52
2023-04-23T03:49:26.118Z,27.20
2023-04-23T03:51:56.704Z,28.10
2023-04-23T03:54:26.817Z,26.58
2023-04-23T03:57:09.769Z,27.85
2023-04-23T03:59:44.189Z,26.30
2023-04-23T04:02:38.649Z,27.10
2023-04-23T04:05:07.878Z,26.05
2023-04-23T04:07:37.358Z,24.10
2023-04-23T04:10:07.527Z,25.88
2023-04-23T04:12:36.633Z,23.70
2023-04-23T04:15:05.711Z,23.67
2023-04-23T04:17:34.466Z,25.10
2023-04-23T04:20:02.952Z,24.63
2023-04-23T04:22:31.575Z,24.30
2023-04-23T04:24:59.870Z,22.10
2023-04-23T04:27:28.402Z,22.90
2023-04-23T04:29:56.790Z,22.58
2023-04-23T04:32:25.486Z,23.08
2023-04-23T04:34:54.850Z,22.13
2023-04-23T04:37:23.755Z,22.63
2023-04-23T04:39:52.047Z,20.58
2023-04-23T04:42:23.829Z,21.80
2023-04-23T04:44:53.276Z,22.17
2023-04-23T04:49:52.581Z,28.75
2023-04-23T04:52:21.617Z,23.90
2023-04-23T04:54:49.952Z,22.48
2023-04-23T04:57:20.162Z,21.17
2023-04-23T04:59:49.138Z,21.58
2023-04-23T05:02:18.010Z,20.13
2023-04-23T05:04:46.622Z,18.83
2023-04-23T05:07:15.173Z,19.20
2023-04-23T05:09:45.113Z,19.75
2023-04-23T05:12:14.032Z,19.10
2023-04-23T05:14:42.536Z,19.15
2023-04-23T05:19:54.843Z,18.48
2023-04-23T05:22:23.714Z,18.27
2023-04-23T05:24:51.882Z,17.98
2023-04-23T05:27:20.656Z,18.42
2023-04-23T05:29:48.860Z,19.13
2023-04-23T05:32:17.902Z,18.33
2023-04-23T05:34:47.191Z,19.08
2023-04-23T05:37:15.914Z,17.77
2023-04-23T05:39:44.608Z,18.38
2023-04-23T05:42:13.505Z,17.63
2023-04-23T05:44:45.138Z,16.85
2023-04-23T05:47:14.300Z,16.77
2023-04-23T05:49:42.500Z,18.77
2023-04-23T05:52:11.517Z,19.83
2023-04-23T05:54:40.003Z,20.65
2023-04-23T05:57:11.123Z,20.33
2023-04-23T05:59:39.292Z,19.60
2023-04-23T06:02:09.539Z,21.23
2023-04-23T06:04:38.224Z,15.50
2023-04-23T06:07:07.416Z,15.65
2023-04-23T06:09:35.908Z,15.10
2023-04-23T06:12:04.817Z,15.07
2023-04-23T06:14:33.203Z,14.68
2023-04-23T06:17:02.180Z,14.75
2023-04-23T06:19:30.947Z,14.38
2023-04-23T06:21:59.763Z,14.68
2023-04-23T06:24:28.031Z,14.40
2023-04-23T06:26:57.911Z,14.63
2023-04-23T06:29:28.060Z,14.57
2023-04-23T06:32:03.675Z,14.45
2023-04-23T06:34:31.899Z,15.30
2023-04-23T06:37:30.012Z,12.20
2023-04-23T06:43:16.640Z,13.00
2023-04-23T06:46:18.259Z,14.20
2023-04-23T06:48:46.863Z,12.63
2023-04-23T06:51:16.500Z,15.50
2023-04-23T06:53:45.527Z,13.80
2023-04-23T06:56:13.884Z,12.88
2023-04-23T06:58:42.671Z,12.85
2023-04-23T07:01:19.797Z,12.77
2023-04-23T07:03:51.515Z,12.68
2023-04-23T07:06:20.033Z,12.07
2023-04-23T07:08:48.937Z,11.63
2023-04-23T07:11:42.155Z,11.73
2023-04-23T07:14:10.730Z,12.70
2023-04-23T07:16:39.159Z,12.02
2023-04-23T07:19:08.136Z,11.70
2023-04-23T07:21:36.538Z,11.32
2023-04-23T07:24:07.930Z,12.15
2023-04-23T07:26:36.510Z,11.93
2023-04-23T07:29:07.898Z,11.75
2023-04-23T07:31:37.155Z,11.65
2023-04-23T07:34:06.781Z,11.40
2023-04-23T07:36:35.033Z,11.27
2023-04-23T07:39:05.498Z,11.75
2023-04-23T07:41:33.934Z,11.68
2023-04-23T07:44:02.675Z,11.15
2023-04-23T07:46:31.235Z,10.23
2023-04-23T07:49:00.175Z,11.05
2023-04-23T07:51:28.690Z,11.43
2023-04-23T07:53:58.404Z,10.90
2023-04-23T07:56:32.559Z,10.68
2023-04-23T07:59:01.145Z,12.32
2023-04-23T08:01:30.339Z,10.52
2023-04-23T08:04:00.986Z,10.35
2023-04-23T08:06:37.549Z,10.55
2023-04-23T08:09:06.625Z,9.68
2023-04-23T08:11:35.289Z,10.20
2023-04-23T08:14:03.944Z,9.23
2023-04-23T08:16:33.070Z,9.82
2023-04-23T08:19:05.379Z,10.80
2023-04-23T08:21:35.062Z,9.57
2023-04-23T08:24:04.736Z,9.65
2023-04-23T08:26:34.333Z,9.95
2023-04-23T08:29:06.675Z,8.57
2023-04-23T08:31:35.158Z,9.27
2023-04-23T08:34:10.441Z,8.63
2023-04-23T08:36:38.802Z,8.98
2023-04-23T08:39:08.090Z,9.07
2023-04-23T08:41:44.876Z,8.48
2023-04-23T08:44:22.616Z,8.25
2023-04-23T08:46:53.959Z,7.82
2023-04-23T08:49:22.804Z,7.47
2023-04-23T08:51:54.242Z,8.00
2023-04-23T08:56:58.489Z,7.20
2023-04-23T08:59:30.548Z,7.63
2023-04-23T09:02:01.686Z,7.65
2023-04-23T09:04:31.839Z,7.88
2023-04-23T09:07:01.191Z,7.43
2023-04-23T09:09:30.663Z,6.88
2023-04-23T09:11:59.103Z,6.75
2023-04-23T09:14:27.707Z,6.07
2023-04-23T09:16:57.293Z,6.72
2023-04-23T09:19:38.390Z,6.45
2023-04-23T09:22:08.358Z,6.13
2023-04-23T09:24:36.986Z,6.45
2023-04-23T09:27:06.154Z,6.05
2023-04-23T09:29:34.839Z,5.70
2023-04-23T09:32:12.333Z,5.60
2023-04-23T09:34:41.484Z,5.63
2023-04-23T09:37:11.246Z,5.70
2023-04-23T09:40:09.050Z,5.93
2023-04-23T09:42:37.959Z,6.22
2023-04-23T09:45:09.095Z,6.20
2023-04-23T09:47:48.878Z,5.35
2023-04-23T09:50:17.649Z,6.93
2023-04-23T09:52:46.469Z,6.10
2023-04-23T09:55:15.095Z,6.63
2023-04-23T09:57:44.221Z,6.60
2023-04-23T10:00:21.298Z,6.20
2023-04-23T10:02:51.659Z,5.63
2023-04-23T10:05:27.217Z,10.38
2023-04-23T10:07:57.883Z,25.38
2023-04-23T10:10:26.731Z,10.80
2023-04-23T10:12:56.335Z,6.45
2023-04-23T10:15:27.250Z,9.55
2023-04-23T10:17:56.476Z,5.00
2023-04-23T10:20:26.226Z,5.93
2023-04-23T10:22:56.642Z,7.47
2023-04-23T10:25:26.336Z,5.95
2023-04-23T10:27:56.634Z,5.25
2023-04-23T10:30:25.648Z,4.93
2023-04-23T10:32:55.474Z,4.70
2023-04-23T10:35:24.104Z,4.82
2023-04-23T10:37:53.416Z,4.38
2023-04-23T10:40:30.722Z,7.18
2023-04-23T10:43:00.836Z,5.30
2023-04-23T10:45:32.262Z,4.80
2023-04-23T10:48:02.964Z,4.85
2023-04-23T10:50:37.432Z,5.43
2023-04-23T10:53:32.030Z,4.72
2023-04-23T10:56:10.400Z,5.00
2023-04-23T10:58:49.649Z,4.63
2023-04-23T11:01:19.401Z,4.47
2023-04-23T11:03:52.493Z,5.45
2023-04-23T11:06:50.486Z,4.72
2023-04-23T11:09:36.941Z,5.15
2023-04-23T11:12:27.722Z,4.30
2023-04-23T11:14:57.231Z,4.40
2023-04-23T11:17:31.829Z,4.10
2023-04-23T11:20:25.231Z,4.15
2023-04-23T11:22:54.156Z,3.80
2023-04-23T11:25:27.943Z,3.85
2023-04-23T11:28:09.042Z,4.28
2023-04-23T11:30:37.268Z,3.70
2023-04-23T11:33:09.656Z,3.63
2023-04-23T11:35:40.841Z,4.22
2023-04-23T11:38:10.652Z,3.97
2023-04-23T11:40:40.523Z,4.13
2023-04-23T11:43:09.864Z,3.83
2023-04-23T11:45:38.175Z,4.20
2023-04-23T11:48:21.460Z,4.40
2023-04-23T11:50:50.605Z,5.28
2023-04-23T11:53:19.431Z,4.13
2023-04-23T11:55:49.485Z,4.13
2023-04-23T11:58:18.229Z,3.80
2023-04-23T12:00:46.797Z,3.45
2023-04-23T12:03:16.831Z,4.47
2023-04-23T12:05:46.233Z,4.10
2023-04-23T12:08:19.796Z,4.03
2023-04-23T12:10:54.866Z,4.22
2023-04-23T12:13:26.751Z,4.45
2023-04-23T12:15:57.582Z,3.80
2023-04-23T12:18:29.946Z,3.70
2023-04-23T12:21:13.431Z,3.58
2023-04-23T12:23:45.072Z,3.80
2023-04-23T12:26:39.833Z,3.90
2023-04-23T12:29:08.411Z,3.90
2023-04-23T12:32:03.504Z,4.30
2023-04-23T12:35:06.290Z,3.50
2023-04-23T12:37:40.209Z,4.07
2023-04-23T12:40:08.940Z,4.10
2023-04-23T12:42:38.196Z,3.95
2023-04-23T12:45:11.142Z,3.83
2023-04-23T12:47:40.601Z,3.85
2023-04-23T12:50:09.381Z,5.03
2023-04-23T12:52:38.698Z,3.38
2023-04-23T12:55:12.582Z,3.60
2023-04-23T12:57:45.585Z,3.85
2023-04-23T13:00:21.445Z,4.25
2023-04-23T13:02:53.486Z,3.85
2023-04-23T13:05:23.657Z,4.20
2023-04-23T13:07:57.697Z,3.92
2023-04-23T13:10:26.114Z,4.55
2023-04-23T13:12:57.639Z,3.65
2023-04-23T13:15:28.381Z,3.75
2023-04-23T13:17:59.071Z,3.60
2023-04-23T13:20:29.994Z,3.77
2023-04-23T13:23:16.551Z,4.00
2023-04-23T13:25:47.139Z,3.53
2023-04-23T13:28:19.155Z,6.13
2023-04-23T13:30:53.160Z,23.52
2023-04-23T13:33:26.872Z,6.07
2023-04-23T13:35:58.909Z,27.45
2023-04-23T13:38:32.171Z,10.63
2023-04-23T13:41:00.706Z,21.10
2023-04-23T13:46:10.190Z,6.30
2023-04-23T13:48:44.205Z,18.60
2023-04-23T13:51:33.297Z,8.52
2023-04-23T13:54:06.233Z,12.68
2023-04-23T13:56:36.772Z,5.25
2023-04-23T13:59:18.177Z,4.55
2023-04-23T14:01:51.655Z,26.88
2023-04-23T14:04:30.071Z,14.13
2023-04-23T14:06:58.482Z,25.50
2023-04-23T14:09:28.418Z,10.73
2023-04-23T14:11:56.890Z,30.58
2023-04-23T14:14:25.604Z,5.25
2023-04-23T14:16:54.327Z,10.60
2023-04-23T14:19:26.192Z,8.70
2023-04-23T14:21:59.306Z,7.63
2023-04-23T14:24:29.432Z,6.60
2023-04-23T14:26:58.034Z,7.20
2023-04-23T14:29:35.392Z,4.78
2023-04-23T14:32:03.736Z,4.65
2023-04-23T14:34:35.850Z,5.70
2023-04-23T14:37:04.328Z,4.82
2023-04-23T14:39:34.557Z,4.70
2023-04-23T14:42:03.159Z,3.88
2023-04-23T14:44:32.016Z,3.58
2023-04-23T14:47:00.454Z,3.97
2023-04-23T14:49:29.499Z,3.72
2023-04-23T14:51:58.361Z,4.10
2023-04-23T14:54:27.251Z,3.75
2023-04-23T14:56:55.497Z,4.07
2023-04-23T14:59:24.191Z,4.35
2023-04-23T15:01:52.535Z,4.30
2023-04-23T15:04:21.264Z,3.80
2023-04-23T15:06:49.691Z,4.18
2023-04-23T15:09:18.594Z,3.92
2023-04-23T15:11:46.882Z,3.88
2023-04-23T15:14:37.554Z,4.10
2023-04-23T15:17:06.075Z,3.40
2023-04-23T15:19:34.642Z,5.00
2023-04-23T15:22:02.831Z,2.65
2023-04-23T15:24:31.369Z,3.00
2023-04-23T15:27:03.814Z,3.72
2023-04-23T15:29:32.421Z,3.08
2023-04-23T15:32:00.743Z,3.35
2023-04-23T15:34:29.331Z,3.53
2023-04-23T15:36:57.528Z,3.67
2023-04-23T15:39:26.462Z,3.35
2023-04-23T15:41:56.974Z,3.50
2023-04-23T15:44:26.560Z,3.77
2023-04-23T15:46:54.875Z,4.45
2023-04-23T15:49:23.467Z,4.82
2023-04-23T15:51:51.852Z,4.60
2023-04-23T15:54:20.524Z,4.07
2023-04-23T15:56:48.674Z,4.45
2023-04-23T15:59:17.275Z,4.53
2023-04-23T16:01:45.662Z,5.10
2023-04-23T16:04:14.784Z,5.25
2023-04-23T16:06:43.160Z,5.47
2023-04-23T16:09:11.991Z,5.70
2023-04-23T16:11:40.948Z,5.47
2023-04-23T16:14:10.273Z,5.13
2023-04-23T16:16:38.958Z,5.38
2023-04-23T16:19:07.951Z,5.20
2023-04-23T16:21:36.492Z,5.25
2023-04-23T16:24:07.713Z,4.93
2023-04-23T16:26:37.597Z,5.30
2023-04-23T16:29:21.280Z,5.07
2023-04-23T16:31:51.106Z,5.82
2023-04-23T16:34:19.980Z,5.57
2023-04-23T16:36:48.376Z,5.03
2023-04-23T16:39:17.985Z,5.55
2023-04-23T16:41:46.506Z,5.63
2023-04-23T16:44:15.294Z,6.10
2023-04-23T16:46:43.794Z,4.95
2023-04-23T16:49:13.832Z,5.70
2023-04-23T16:51:42.135Z,5.35
2023-04-23T16:54:10.849Z,5.50
2023-04-23T16:56:39.735Z,5.03
2023-04-23T16:59:08.412Z,5.22
2023-04-23T17:01:36.721Z,4.53
2023-04-23T17:04:05.882Z,6.40
2023-04-23T17:06:34.429Z,6.65
2023-04-23T17:09:05.184Z,16.15
2023-04-23T17:11:33.628Z,7.90
2023-04-23T17:14:02.271Z,5.32
2023-04-23T17:16:31.211Z,5.70
2023-04-23T17:19:01.368Z,5.55
2023-04-23T17:21:29.643Z,5.60
2023-04-23T17:23:58.396Z,6.30
2023-04-23T17:26:26.966Z,5.82
2023-04-23T17:28:56.798Z,5.78
2023-04-23T17:31:25.531Z,6.07
2023-04-23T17:33:55.567Z,6.13
2023-04-23T17:36:24.047Z,5.80
2023-04-23T17:38:52.658Z,6.00
2023-04-23T17:41:23.184Z,6.00
2023-04-23T17:43:52.285Z,6.15
2023-04-23T17:46:20.670Z,5.68
2023-04-23T17:48:49.442Z,5.45
2023-04-23T17:51:18.937Z,6.10
2023-04-23T17:53:51.059Z,5.65
2023-04-23T17:59:11.850Z,5.40
2023-04-23T18:01:40.172Z,5.80
2023-04-23T18:04:09.298Z,5.15
2023-04-23T18:06:38.694Z,5.40
2023-04-23T18:09:10.448Z,5.10
2023-04-23T18:11:40.029Z,5.40
2023-04-23T18:14:12.324Z,4.40
2023-04-23T18:16:41.643Z,3.63
2023-04-23T18:19:10.731Z,3.42
2023-04-23T18:21:46.545Z,3.00
2023-04-23T18:24:18.446Z,3.05
2023-04-23T18:26:48.681Z,2.92
2023-04-23T18:31:47.149Z,2.78
2023-04-23T18:34:19.358Z,2.80
2023-04-23T18:39:21.705Z,3.10
2023-04-23T18:41:59.115Z,3.42
2023-04-23T18:44:46.622Z,4.00
2023-04-23T18:47:22.940Z,3.38
2023-04-23T18:50:08.489Z,3.85
2023-04-23T18:56:40.422Z,3.20
2023-04-23T18:59:08.863Z,2.55
2023-04-23T19:01:53.214Z,3.00
2023-04-23T19:04:25.160Z,3.03
2023-04-23T19:07:15.984Z,2.80
2023-04-23T19:10:00.631Z,3.00
2023-04-23T19:12:38.315Z,3.28
2023-04-23T19:15:07.693Z,4.35
2023-04-23T19:17:37.449Z,3.65
2023-04-23T19:20:09.918Z,4.00
2023-04-23T19:22:52.381Z,4.40
2023-04-23T19:25:20.962Z,4.70
2023-04-23T19:28:15.497Z,8.10
2023-04-23T19:30:46.907Z,6.70
2023-04-23T19:33:18.076Z,4.53
2023-04-23T19:35:56.336Z,4.35
2023-04-23T19:38:26.018Z,6.80
2023-04-23T19:40:55.381Z,7.88
2023-04-23T19:43:24.139Z,6.80
2023-04-23T19:45:52.780Z,11.90
2023-04-23T19:48:21.914Z,14.40
2023-04-23T19:50:51.013Z,12.23
2023-04-23T19:53:45.244Z,10.48
2023-04-23T19:56:18.460Z,9.18
2023-04-23T19:58:52.034Z,9.00
2023-04-23T20:01:48.951Z,9.13
2023-04-23T20:04:21.088Z,7.97
2023-04-23T20:06:49.559Z,7.20
2023-04-23T20:09:21.547Z,6.60
2023-04-23T20:11:49.909Z,6.28
2023-04-23T20:17:45.913Z,6.25
2023-04-23T20:21:06.427Z,6.68
2023-04-23T20:24:04.529Z,6.30
2023-04-23T20:26:58.960Z,6.28
2023-04-23T20:29:54.215Z,6.75
2023-04-23T20:32:28.030Z,6.55
2023-04-23T20:35:00.400Z,6.80
2023-04-23T20:37:29.984Z,6.90
2023-04-23T20:39:58.766Z,7.72
2023-04-23T20:42:30.173Z,7.30
2023-04-23T20:45:07.134Z,8.48
2023-04-23T20:48:06.303Z,7.93
2023-04-23T20:51:31.210Z,9.63
2023-04-23T20:54:26.254Z,8.98
2023-04-23T20:57:21.303Z,8.27
2023-04-23T21:03:01.358Z,7.78
2023-04-23T21:06:22.864Z,8.43
2023-04-23T21:09:16.920Z,8.00
2023-04-23T21:11:46.405Z,8.13
2023-04-23T21:14:50.298Z,8.52
2023-04-23T21:17:19.397Z,8.52
2023-04-23T21:20:25.648Z,9.02
2023-04-23T21:26:52.578Z,8.63
2023-04-23T21:29:49.703Z,8.90
2023-04-23T21:32:19.265Z,9.82
2023-04-23T21:34:52.280Z,10.38
2023-04-23T21:37:21.340Z,10.50
2023-04-23T21:39:49.949Z,9.90
2023-04-23T21:42:19.270Z,10.80
2023-04-23T21:44:47.624Z,11.00
2023-04-23T21:47:16.289Z,10.05
2023-04-23T21:49:45.010Z,12.68
2023-04-23T21:52:14.630Z,11.32
2023-04-23T21:54:44.088Z,13.30
2023-04-23T21:57:14.219Z,14.63
2023-04-23T21:59:43.312Z,16.60
2023-04-23T22:02:12.413Z,17.42
2023-04-23T22:04:42.392Z,17.63
2023-04-23T22:07:12.794Z,19.13
2023-04-23T22:09:41.990Z,20.58
2023-04-23T22:12:11.944Z,20.85
2023-04-23T22:14:40.699Z,21.27
2023-04-23T22:17:11.992Z,20.38
2023-04-23T22:19:40.638Z,19.70
2023-04-23T22:22:09.355Z,17.38
2023-04-23T22:24:37.736Z,16.60
2023-04-23T22:27:06.745Z,17.38
2023-04-23T22:29:50.585Z,17.17
2023-04-23T22:32:19.554Z,16.10
2023-04-23T22:34:47.791Z,15.25
2023-04-23T22:37:17.278Z,16.13
2023-04-23T22:39:45.886Z,15.48
2023-04-23T22:42:16.246Z,15.10
2023-04-23T22:44:44.778Z,16.02
2023-04-23T22:47:13.952Z,14.90
2023-04-23T22:49:42.776Z,15.38
2023-04-23T22:52:16.136Z,15.73
2023-04-23T22:54:44.608Z,15.65
2023-04-23T22:57:13.280Z,16.13
2023-04-23T22:59:42.213Z,17.08
2023-04-23T23:02:11.384Z,17.85
2023-04-23T23:04:41.090Z,20.40
2023-04-23T23:07:10.315Z,19.83
2023-04-23T23:09:38.880Z,19.75
2023-04-23T23:12:07.655Z,18.05
2023-04-23T23:14:38.212Z,18.20
2023-04-23T23:17:07.045Z,18.00
2023-04-23T23:19:35.393Z,17.95
2023-04-23T23:22:04.508Z,17.70
2023-04-23T23:24:32.911Z,18.15
2023-04-23T23:27:01.901Z,17.60
2023-04-23T23:29:30.144Z,17.92
2023-04-23T23:31:59.061Z,17.73
2023-04-23T23:34:27.957Z,17.25
2023-04-23T23:36:56.626Z,16.88
2023-04-23T23:39:25.290Z,17.65
2023-04-23T23:41:54.245Z,18.05
2023-04-23T23:44:22.445Z,19.00
2023-04-23T23:46:52.956Z,17.90
2023-04-23T23:49:22.085Z,18.50
2023-04-23T23:51:51.469Z,19.38
2023-04-23T23:54:19.867Z,19.17
2023-04-23T23:56:48.609Z,19.00
2023-04-23T23:59:17.041Z,19.00
